sensor_id;sensor_type;location;lat;lon;timestamp;P1;durP1;ratioP1;P2;durP2;ratioP2
30096;SDS011;16915;51.466;3.610;2023-07-30T00:02:02;14.52;;;3.00;;
30096;SDS011;16915;51.466;3.610;2023-07-30T00:04:28;16.05;;;2.42;;
30096;SDS011;16915;51.466;3.610;2023-07-30T00:06:53;17.38;;;3.03;;
30096;SDS011;16915;51.466;3.610;2023-07-30T00:09:19;11.70;;;2.45;;
30096;SDS011;16915;51.466;3.610;2023-07-30T00:11:44;15.88;;;3.38;;
30096;SDS011;16915;51.466;3.610;2023-07-30T00:14:10;18.30;;;2.55;;
30096;SDS011;16915;51.466;3.610;2023-07-30T00:16:36;20.55;;;3.20;;
30096;SDS011;16915;51.466;3.610;2023-07-30T00:19:01;20.77;;;3.17;;
30096;SDS011;16915;51.466;3.610;2023-07-30T00:21:27;13.10;;;2.65;;
30096;SDS011;16915;51.466;3.610;2023-07-30T00:23:52;12.20;;;2.67;;
30096;SDS011;16915;51.466;3.610;2023-07-30T00:26:18;16.83;;;3.10;;
30096;SDS011;16915;51.466;3.610;2023-07-30T00:28:43;15.93;;;4.30;;
30096;SDS011;16915;51.466;3.610;2023-07-30T00:31:09;16.33;;;3.25;;
30096;SDS011;16915;51.466;3.610;2023-07-30T00:33:34;14.82;;;3.20;;
30096;SDS011;16915;51.466;3.610;2023-07-30T00:36:00;12.05;;;2.53;;
30096;SDS011;16915;51.466;3.610;2023-07-30T00:38:25;24.00;;;3.22;;
30096;SDS011;16915;51.466;3.610;2023-07-30T00:40:51;19.52;;;3.17;;
30096;SDS011;16915;51.466;3.610;2023-07-30T00:43:17;27.10;;;3.78;;
30096;SDS011;16915;51.466;3.610;2023-07-30T00:45:43;22.35;;;3.00;;
30096;SDS011;16915;51.466;3.610;2023-07-30T00:48:10;20.48;;;3.25;;
30096;SDS011;16915;51.466;3.610;2023-07-30T00:50:36;25.05;;;4.13;;
30096;SDS011;16915;51.466;3.610;2023-07-30T00:53:04;16.55;;;3.15;;
30096;SDS011;16915;51.466;3.610;2023-07-30T00:55:29;19.83;;;2.80;;
30096;SDS011;16915;51.466;3.610;2023-07-30T00:57:56;11.88;;;3.30;;
30096;SDS011;16915;51.466;3.610;2023-07-30T01:00:22;18.35;;;3.33;;
30096;SDS011;16915;51.466;3.610;2023-07-30T01:02:50;17.25;;;3.10;;
30096;SDS011;16915;51.466;3.610;2023-07-30T01:05:16;14.48;;;3.10;;
30096;SDS011;16915;51.466;3.610;2023-07-30T01:07:42;24.23;;;4.20;;
30096;SDS011;16915;51.466;3.610;2023-07-30T01:10:08;20.65;;;3.88;;
30096;SDS011;16915;51.466;3.610;2023-07-30T01:12:34;16.15;;;3.00;;
30096;SDS011;16915;51.466;3.610;2023-07-30T01:15:00;17.98;;;3.22;;
30096;SDS011;16915;51.466;3.610;2023-07-30T01:17:27;22.95;;;3.30;;
30096;SDS011;16915;51.466;3.610;2023-07-30T01:19:53;13.90;;;2.58;;
30096;SDS011;16915;51.466;3.610;2023-07-30T01:22:22;26.20;;;3.90;;
30096;SDS011;16915;51.466;3.610;2023-07-30T01:24:48;23.20;;;3.97;;
30096;SDS011;16915;51.466;3.610;2023-07-30T01:27:16;21.52;;;3.13;;
30096;SDS011;16915;51.466;3.610;2023-07-30T01:29:55;22.42;;;3.60;;
30096;SDS011;16915;51.466;3.610;2023-07-30T01:32:27;23.33;;;3.53;;
30096;SDS011;16915;51.466;3.610;2023-07-30T01:34:54;20.35;;;3.22;;
30096;SDS011;16915;51.466;3.610;2023-07-30T01:37:21;20.17;;;3.90;;
30096;SDS011;16915;51.466;3.610;2023-07-30T01:39:48;19.67;;;2.95;;
30096;SDS011;16915;51.466;3.610;2023-07-30T01:42:14;17.67;;;2.90;;
30096;SDS011;16915;51.466;3.610;2023-07-30T01:44:40;22.23;;;3.35;;
30096;SDS011;16915;51.466;3.610;2023-07-30T01:47:06;17.45;;;2.80;;
30096;SDS011;16915;51.466;3.610;2023-07-30T01:49:31;16.10;;;3.35;;
30096;SDS011;16915;51.466;3.610;2023-07-30T01:51:57;18.02;;;3.38;;
30096;SDS011;16915;51.466;3.610;2023-07-30T01:54:22;23.52;;;3.38;;
30096;SDS011;16915;51.466;3.610;2023-07-30T01:56:48;17.30;;;3.35;;
30096;SDS011;16915;51.466;3.610;2023-07-30T01:59:14;24.92;;;3.13;;
30096;SDS011;16915;51.466;3.610;2023-07-30T02:01:40;19.17;;;3.50;;
30096;SDS011;16915;51.466;3.610;2023-07-30T02:04:06;23.48;;;3.58;;
30096;SDS011;16915;51.466;3.610;2023-07-30T02:06:32;24.00;;;3.63;;
30096;SDS011;16915;51.466;3.610;2023-07-30T02:08:57;22.77;;;3.22;;
30096;SDS011;16915;51.466;3.610;2023-07-30T02:11:23;24.60;;;3.40;;
30096;SDS011;16915;51.466;3.610;2023-07-30T02:13:48;25.38;;;3.80;;
30096;SDS011;16915;51.466;3.610;2023-07-30T02:16:14;24.05;;;3.28;;
30096;SDS011;16915;51.466;3.610;2023-07-30T02:18:39;21.52;;;3.53;;
30096;SDS011;16915;51.466;3.610;2023-07-30T02:21:05;25.58;;;3.75;;
30096;SDS011;16915;51.466;3.610;2023-07-30T02:23:31;32.00;;;4.53;;
30096;SDS011;16915;51.466;3.610;2023-07-30T02:25:56;15.93;;;3.40;;
30096;SDS011;16915;51.466;3.610;2023-07-30T02:28:22;25.60;;;3.47;;
30096;SDS011;16915;51.466;3.610;2023-07-30T02:30:47;25.95;;;3.58;;
30096;SDS011;16915;51.466;3.610;2023-07-30T02:33:13;25.42;;;3.80;;
30096;SDS011;16915;51.466;3.610;2023-07-30T02:35:38;23.33;;;3.88;;
30096;SDS011;16915;51.466;3.610;2023-07-30T02:38:04;19.08;;;3.63;;
30096;SDS011;16915;51.466;3.610;2023-07-30T02:40:30;34.08;;;4.45;;
30096;SDS011;16915;51.466;3.610;2023-07-30T02:42:56;22.38;;;3.90;;
30096;SDS011;16915;51.466;3.610;2023-07-30T02:45:21;24.58;;;3.83;;
30096;SDS011;16915;51.466;3.610;2023-07-30T02:47:47;25.00;;;3.60;;
30096;SDS011;16915;51.466;3.610;2023-07-30T02:50:13;21.48;;;3.63;;
30096;SDS011;16915;51.466;3.610;2023-07-30T02:52:38;24.23;;;3.53;;
30096;SDS011;16915;51.466;3.610;2023-07-30T02:55:04;23.67;;;4.00;;
30096;SDS011;16915;51.466;3.610;2023-07-30T02:57:30;26.08;;;4.03;;
30096;SDS011;16915;51.466;3.610;2023-07-30T02:59:56;23.80;;;3.72;;
30096;SDS011;16915;51.466;3.610;2023-07-30T03:02:22;25.65;;;4.13;;
30096;SDS011;16915;51.466;3.610;2023-07-30T03:04:47;26.40;;;3.55;;
30096;SDS011;16915;51.466;3.610;2023-07-30T03:07:13;21.45;;;4.00;;
30096;SDS011;16915;51.466;3.610;2023-07-30T03:09:39;30.40;;;4.47;;
30096;SDS011;16915;51.466;3.610;2023-07-30T03:12:04;28.33;;;3.83;;
30096;SDS011;16915;51.466;3.610;2023-07-30T03:14:30;29.70;;;4.07;;
30096;SDS011;16915;51.466;3.610;2023-07-30T03:16:56;20.10;;;4.00;;
30096;SDS011;16915;51.466;3.610;2023-07-30T03:19:21;28.80;;;5.50;;
30096;SDS011;16915;51.466;3.610;2023-07-30T03:21:47;25.83;;;4.00;;
30096;SDS011;16915;51.466;3.610;2023-07-30T03:24:12;20.60;;;3.53;;
30096;SDS011;16915;51.466;3.610;2023-07-30T03:26:38;36.10;;;3.88;;
30096;SDS011;16915;51.466;3.610;2023-07-30T03:29:04;18.05;;;3.83;;
30096;SDS011;16915;51.466;3.610;2023-07-30T03:31:29;21.98;;;3.47;;
30096;SDS011;16915;51.466;3.610;2023-07-30T03:33:55;23.30;;;3.97;;
30096;SDS011;16915;51.466;3.610;2023-07-30T03:36:20;25.70;;;4.10;;
30096;SDS011;16915;51.466;3.610;2023-07-30T03:38:46;26.10;;;4.07;;
30096;SDS011;16915;51.466;3.610;2023-07-30T03:41:11;16.20;;;3.40;;
30096;SDS011;16915;51.466;3.610;2023-07-30T03:43:37;24.77;;;4.45;;
30096;SDS011;16915;51.466;3.610;2023-07-30T03:46:03;27.60;;;4.20;;
30096;SDS011;16915;51.466;3.610;2023-07-30T03:48:28;23.25;;;3.22;;
30096;SDS011;16915;51.466;3.610;2023-07-30T03:50:54;30.85;;;4.15;;
30096;SDS011;16915;51.466;3.610;2023-07-30T03:53:20;23.75;;;4.15;;
30096;SDS011;16915;51.466;3.610;2023-07-30T03:55:46;20.13;;;3.47;;
30096;SDS011;16915;51.466;3.610;2023-07-30T03:58:12;18.45;;;3.38;;
30096;SDS011;16915;51.466;3.610;2023-07-30T04:00:37;20.05;;;3.58;;
30096;SDS011;16915;51.466;3.610;2023-07-30T04:03:03;22.88;;;3.17;;
30096;SDS011;16915;51.466;3.610;2023-07-30T04:05:29;20.23;;;3.42;;
30096;SDS011;16915;51.466;3.610;2023-07-30T04:07:55;35.67;;;4.35;;
30096;SDS011;16915;51.466;3.610;2023-07-30T04:10:20;24.73;;;4.32;;
30096;SDS011;16915;51.466;3.610;2023-07-30T04:12:46;24.10;;;4.50;;
30096;SDS011;16915;51.466;3.610;2023-07-30T04:15:12;26.77;;;4.28;;
30096;SDS011;16915;51.466;3.610;2023-07-30T04:17:37;23.75;;;4.22;;
30096;SDS011;16915;51.466;3.610;2023-07-30T04:20:03;29.33;;;4.25;;
30096;SDS011;16915;51.466;3.610;2023-07-30T04:22:30;31.83;;;3.85;;
30096;SDS011;16915;51.466;3.610;2023-07-30T04:24:56;24.95;;;3.55;;
30096;SDS011;16915;51.466;3.610;2023-07-30T04:27:21;29.52;;;4.55;;
30096;SDS011;16915;51.466;3.610;2023-07-30T04:29:47;25.50;;;4.38;;
30096;SDS011;16915;51.466;3.610;2023-07-30T04:32:13;27.10;;;3.70;;
30096;SDS011;16915;51.466;3.610;2023-07-30T04:34:38;28.30;;;3.80;;
30096;SDS011;16915;51.466;3.610;2023-07-30T04:37:04;23.95;;;4.35;;
30096;SDS011;16915;51.466;3.610;2023-07-30T04:39:31;25.10;;;4.10;;
30096;SDS011;16915;51.466;3.610;2023-07-30T04:41:57;24.05;;;3.88;;
30096;SDS011;16915;51.466;3.610;2023-07-30T04:44:23;24.05;;;3.92;;
30096;SDS011;16915;51.466;3.610;2023-07-30T04:46:49;33.72;;;4.03;;
30096;SDS011;16915;51.466;3.610;2023-07-30T04:49:14;25.95;;;4.20;;
30096;SDS011;16915;51.466;3.610;2023-07-30T04:51:40;22.88;;;3.40;;
30096;SDS011;16915;51.466;3.610;2023-07-30T04:54:06;22.95;;;4.05;;
30096;SDS011;16915;51.466;3.610;2023-07-30T04:56:31;22.50;;;3.58;;
30096;SDS011;16915;51.466;3.610;2023-07-30T04:58:57;27.55;;;3.65;;
30096;SDS011;16915;51.466;3.610;2023-07-30T05:01:26;29.33;;;4.65;;
30096;SDS011;16915;51.466;3.610;2023-07-30T05:03:51;31.55;;;4.20;;
30096;SDS011;16915;51.466;3.610;2023-07-30T05:06:17;26.52;;;3.95;;
30096;SDS011;16915;51.466;3.610;2023-07-30T05:08:43;29.90;;;3.85;;
30096;SDS011;16915;51.466;3.610;2023-07-30T05:11:09;26.08;;;3.22;;
30096;SDS011;16915;51.466;3.610;2023-07-30T05:13:34;30.60;;;4.88;;
30096;SDS011;16915;51.466;3.610;2023-07-30T05:16:00;22.75;;;4.70;;
30096;SDS011;16915;51.466;3.610;2023-07-30T05:18:26;26.25;;;4.40;;
30096;SDS011;16915;51.466;3.610;2023-07-30T05:20:52;18.10;;;3.50;;
30096;SDS011;16915;51.466;3.610;2023-07-30T05:23:18;27.75;;;4.47;;
30096;SDS011;16915;51.466;3.610;2023-07-30T05:25:44;26.70;;;3.60;;
30096;SDS011;16915;51.466;3.610;2023-07-30T05:28:10;25.10;;;4.13;;
30096;SDS011;16915;51.466;3.610;2023-07-30T05:30:35;28.52;;;4.40;;
30096;SDS011;16915;51.466;3.610;2023-07-30T05:33:01;29.33;;;4.28;;
30096;SDS011;16915;51.466;3.610;2023-07-30T05:35:26;27.27;;;4.07;;
30096;SDS011;16915;51.466;3.610;2023-07-30T05:37:52;26.73;;;3.45;;
30096;SDS011;16915;51.466;3.610;2023-07-30T05:40:17;26.55;;;3.53;;
30096;SDS011;16915;51.466;3.610;2023-07-30T05:42:43;28.02;;;4.28;;
30096;SDS011;16915;51.466;3.610;2023-07-30T05:45:09;31.27;;;5.20;;
30096;SDS011;16915;51.466;3.610;2023-07-30T05:47:34;23.05;;;3.88;;
30096;SDS011;16915;51.466;3.610;2023-07-30T05:50:01;20.42;;;3.70;;
30096;SDS011;16915;51.466;3.610;2023-07-30T05:52:27;26.27;;;4.28;;
30096;SDS011;16915;51.466;3.610;2023-07-30T05:54:52;25.17;;;3.90;;
30096;SDS011;16915;51.466;3.610;2023-07-30T05:57:18;23.25;;;3.75;;
30096;SDS011;16915;51.466;3.610;2023-07-30T05:59:43;26.65;;;4.40;;
30096;SDS011;16915;51.466;3.610;2023-07-30T06:02:09;30.60;;;4.13;;
30096;SDS011;16915;51.466;3.610;2023-07-30T06:04:35;23.27;;;3.72;;
30096;SDS011;16915;51.466;3.610;2023-07-30T06:07:01;26.98;;;4.28;;
30096;SDS011;16915;51.466;3.610;2023-07-30T06:09:27;26.67;;;5.07;;
30096;SDS011;16915;51.466;3.610;2023-07-30T06:11:54;22.10;;;4.13;;
30096;SDS011;16915;51.466;3.610;2023-07-30T06:14:21;28.88;;;3.83;;
30096;SDS011;16915;51.466;3.610;2023-07-30T06:16:47;28.00;;;4.20;;
30096;SDS011;16915;51.466;3.610;2023-07-30T06:19:13;28.45;;;3.65;;
30096;SDS011;16915;51.466;3.610;2023-07-30T06:21:38;26.42;;;3.67;;
30096;SDS011;16915;51.466;3.610;2023-07-30T06:24:04;29.30;;;5.28;;
30096;SDS011;16915;51.466;3.610;2023-07-30T06:26:29;25.60;;;4.65;;
30096;SDS011;16915;51.466;3.610;2023-07-30T06:28:55;26.83;;;4.03;;
30096;SDS011;16915;51.466;3.610;2023-07-30T06:31:20;25.02;;;4.32;;
30096;SDS011;16915;51.466;3.610;2023-07-30T06:33:46;21.73;;;3.47;;
30096;SDS011;16915;51.466;3.610;2023-07-30T06:36:12;32.67;;;4.28;;
30096;SDS011;16915;51.466;3.610;2023-07-30T06:38:37;23.23;;;4.20;;
30096;SDS011;16915;51.466;3.610;2023-07-30T06:41:03;26.73;;;4.70;;
30096;SDS011;16915;51.466;3.610;2023-07-30T06:43:29;20.35;;;3.47;;
30096;SDS011;16915;51.466;3.610;2023-07-30T06:45:54;26.95;;;3.97;;
30096;SDS011;16915;51.466;3.610;2023-07-30T06:48:20;16.88;;;3.30;;
30096;SDS011;16915;51.466;3.610;2023-07-30T06:50:46;25.38;;;3.95;;
30096;SDS011;16915;51.466;3.610;2023-07-30T06:53:11;18.85;;;2.75;;
30096;SDS011;16915;51.466;3.610;2023-07-30T06:55:37;17.52;;;3.25;;
30096;SDS011;16915;51.466;3.610;2023-07-30T06:58:02;23.27;;;3.70;;
30096;SDS011;16915;51.466;3.610;2023-07-30T07:00:28;24.95;;;2.90;;
30096;SDS011;16915;51.466;3.610;2023-07-30T07:02:54;22.00;;;3.63;;
30096;SDS011;16915;51.466;3.610;2023-07-30T07:05:19;19.45;;;3.50;;
30096;SDS011;16915;51.466;3.610;2023-07-30T07:07:45;18.75;;;3.17;;
30096;SDS011;16915;51.466;3.610;2023-07-30T07:10:11;27.58;;;4.05;;
30096;SDS011;16915;51.466;3.610;2023-07-30T07:12:37;15.43;;;3.40;;
30096;SDS011;16915;51.466;3.610;2023-07-30T07:15:04;22.60;;;3.15;;
30096;SDS011;16915;51.466;3.610;2023-07-30T07:17:30;19.13;;;3.00;;
30096;SDS011;16915;51.466;3.610;2023-07-30T07:19:56;14.98;;;3.10;;
30096;SDS011;16915;51.466;3.610;2023-07-30T07:22:22;23.92;;;2.85;;
30096;SDS011;16915;51.466;3.610;2023-07-30T07:24:48;19.75;;;3.60;;
30096;SDS011;16915;51.466;3.610;2023-07-30T07:27:13;20.48;;;3.10;;
30096;SDS011;16915;51.466;3.610;2023-07-30T07:29:39;21.02;;;2.83;;
30096;SDS011;16915;51.466;3.610;2023-07-30T07:32:05;19.65;;;3.10;;
30096;SDS011;16915;51.466;3.610;2023-07-30T07:34:31;17.73;;;2.90;;
30096;SDS011;16915;51.466;3.610;2023-07-30T07:36:56;14.73;;;3.38;;
30096;SDS011;16915;51.466;3.610;2023-07-30T07:39:22;18.08;;;3.40;;
30096;SDS011;16915;51.466;3.610;2023-07-30T07:41:47;18.75;;;3.13;;
30096;SDS011;16915;51.466;3.610;2023-07-30T07:44:13;23.58;;;3.97;;
30096;SDS011;16915;51.466;3.610;2023-07-30T07:46:39;21.45;;;3.65;;
30096;SDS011;16915;51.466;3.610;2023-07-30T07:49:04;16.33;;;2.60;;
30096;SDS011;16915;51.466;3.610;2023-07-30T07:51:30;23.83;;;3.35;;
30096;SDS011;16915;51.466;3.610;2023-07-30T07:53:55;21.05;;;4.60;;
30096;SDS011;16915;51.466;3.610;2023-07-30T07:56:21;24.08;;;3.50;;
30096;SDS011;16915;51.466;3.610;2023-07-30T07:58:47;16.90;;;2.65;;
30096;SDS011;16915;51.466;3.610;2023-07-30T08:01:12;17.00;;;3.40;;
30096;SDS011;16915;51.466;3.610;2023-07-30T08:03:38;27.55;;;3.38;;
30096;SDS011;16915;51.466;3.610;2023-07-30T08:06:03;15.50;;;3.20;;
30096;SDS011;16915;51.466;3.610;2023-07-30T08:08:30;23.23;;;3.15;;
30096;SDS011;16915;51.466;3.610;2023-07-30T08:10:56;15.02;;;2.35;;
30096;SDS011;16915;51.466;3.610;2023-07-30T08:13:21;14.10;;;3.00;;
30096;SDS011;16915;51.466;3.610;2023-07-30T08:15:47;19.92;;;2.25;;
30096;SDS011;16915;51.466;3.610;2023-07-30T08:18:13;14.95;;;2.10;;
30096;SDS011;16915;51.466;3.610;2023-07-30T08:20:38;11.88;;;2.03;;
30096;SDS011;16915;51.466;3.610;2023-07-30T08:23:04;9.98;;;2.00;;
30096;SDS011;16915;51.466;3.610;2023-07-30T08:25:30;14.40;;;2.13;;
30096;SDS011;16915;51.466;3.610;2023-07-30T08:27:55;10.80;;;2.28;;
30096;SDS011;16915;51.466;3.610;2023-07-30T08:30:21;16.13;;;2.45;;
30096;SDS011;16915;51.466;3.610;2023-07-30T08:32:46;12.38;;;1.75;;
30096;SDS011;16915;51.466;3.610;2023-07-30T08:35:12;14.68;;;1.90;;
30096;SDS011;16915;51.466;3.610;2023-07-30T08:37:37;17.85;;;1.70;;
30096;SDS011;16915;51.466;3.610;2023-07-30T08:40:03;14.23;;;1.70;;
30096;SDS011;16915;51.466;3.610;2023-07-30T08:42:29;15.02;;;1.88;;
30096;SDS011;16915;51.466;3.610;2023-07-30T08:44:55;12.02;;;2.10;;
30096;SDS011;16915;51.466;3.610;2023-07-30T08:47:21;9.27;;;1.63;;
30096;SDS011;16915;51.466;3.610;2023-07-30T08:49:47;10.50;;;1.63;;
30096;SDS011;16915;51.466;3.610;2023-07-30T08:52:12;9.95;;;1.58;;
30096;SDS011;16915;51.466;3.610;2023-07-30T08:54:41;14.05;;;1.75;;
30096;SDS011;16915;51.466;3.610;2023-07-30T08:57:09;9.73;;;1.55;;
30096;SDS011;16915;51.466;3.610;2023-07-30T08:59:42;12.88;;;2.03;;
30096;SDS011;16915;51.466;3.610;2023-07-30T09:02:17;11.75;;;2.28;;
30096;SDS011;16915;51.466;3.610;2023-07-30T09:04:47;8.57;;;1.55;;
30096;SDS011;16915;51.466;3.610;2023-07-30T09:07:18;8.95;;;1.75;;
30096;SDS011;16915;51.466;3.610;2023-07-30T09:09:43;11.35;;;1.45;;
30096;SDS011;16915;51.466;3.610;2023-07-30T09:12:13;7.45;;;1.58;;
30096;SDS011;16915;51.466;3.610;2023-07-30T09:14:43;6.18;;;1.17;;
30096;SDS011;16915;51.466;3.610;2023-07-30T09:17:17;7.57;;;1.35;;
30096;SDS011;16915;51.466;3.610;2023-07-30T09:19:43;15.13;;;2.72;;
30096;SDS011;16915;51.466;3.610;2023-07-30T09:22:09;12.57;;;1.80;;
30096;SDS011;16915;51.466;3.610;2023-07-30T09:24:35;11.88;;;1.70;;
30096;SDS011;16915;51.466;3.610;2023-07-30T09:27:01;12.88;;;1.63;;
30096;SDS011;16915;51.466;3.610;2023-07-30T09:29:28;13.82;;;2.20;;
30096;SDS011;16915;51.466;3.610;2023-07-30T09:31:54;7.43;;;1.55;;
30096;SDS011;16915;51.466;3.610;2023-07-30T09:34:21;6.28;;;1.55;;
30096;SDS011;16915;51.466;3.610;2023-07-30T09:36:52;5.38;;;1.33;;
30096;SDS011;16915;51.466;3.610;2023-07-30T09:39:23;4.88;;;1.30;;
30096;SDS011;16915;51.466;3.610;2023-07-30T09:41:50;7.97;;;1.80;;
30096;SDS011;16915;51.466;3.610;2023-07-30T09:44:20;7.20;;;1.20;;
30096;SDS011;16915;51.466;3.610;2023-07-30T09:46:47;8.15;;;1.45;;
30096;SDS011;16915;51.466;3.610;2023-07-30T09:49:17;7.60;;;1.35;;
30096;SDS011;16915;51.466;3.610;2023-07-30T09:51:43;10.55;;;1.60;;
30096;SDS011;16915;51.466;3.610;2023-07-30T09:54:10;8.38;;;1.65;;
30096;SDS011;16915;51.466;3.610;2023-07-30T09:56:37;9.38;;;1.30;;
30096;SDS011;16915;51.466;3.610;2023-07-30T09:59:05;7.88;;;1.33;;
30096;SDS011;16915;51.466;3.610;2023-07-30T10:01:31;9.70;;;1.65;;
30096;SDS011;16915;51.466;3.610;2023-07-30T10:03:59;9.32;;;1.55;;
30096;SDS011;16915;51.466;3.610;2023-07-30T10:06:30;12.48;;;2.35;;
30096;SDS011;16915;51.466;3.610;2023-07-30T10:08:57;7.85;;;1.15;;
30096;SDS011;16915;51.466;3.610;2023-07-30T10:11:24;13.52;;;2.15;;
30096;SDS011;16915;51.466;3.610;2023-07-30T10:13:52;12.00;;;1.85;;
30096;SDS011;16915;51.466;3.610;2023-07-30T10:16:19;9.05;;;1.80;;
30096;SDS011;16915;51.466;3.610;2023-07-30T10:18:52;5.80;;;1.73;;
30096;SDS011;16915;51.466;3.610;2023-07-30T10:21:24;13.13;;;2.67;;
30096;SDS011;16915;51.466;3.610;2023-07-30T10:24:01;11.93;;;1.70;;
30096;SDS011;16915;51.466;3.610;2023-07-30T10:26:31;6.22;;;1.50;;
30096;SDS011;16915;51.466;3.610;2023-07-30T10:29:17;9.77;;;1.85;;
30096;SDS011;16915;51.466;3.610;2023-07-30T10:31:48;7.53;;;1.52;;
30096;SDS011;16915;51.466;3.610;2023-07-30T10:34:17;7.80;;;1.40;;
30096;SDS011;16915;51.466;3.610;2023-07-30T10:36:43;6.75;;;1.52;;
30096;SDS011;16915;51.466;3.610;2023-07-30T10:41:39;8.82;;;1.48;;
30096;SDS011;16915;51.466;3.610;2023-07-30T10:44:05;5.30;;;1.38;;
30096;SDS011;16915;51.466;3.610;2023-07-30T10:46:30;7.13;;;1.73;;
30096;SDS011;16915;51.466;3.610;2023-07-30T10:48:57;6.75;;;1.30;;
30096;SDS011;16915;51.466;3.610;2023-07-30T10:51:22;3.70;;;1.30;;
30096;SDS011;16915;51.466;3.610;2023-07-30T10:53:49;5.88;;;1.20;;
30096;SDS011;16915;51.466;3.610;2023-07-30T10:56:16;9.35;;;1.60;;
30096;SDS011;16915;51.466;3.610;2023-07-30T11:01:18;5.85;;;1.23;;
30096;SDS011;16915;51.466;3.610;2023-07-30T11:03:47;9.30;;;1.30;;
30096;SDS011;16915;51.466;3.610;2023-07-30T11:06:20;9.90;;;1.42;;
30096;SDS011;16915;51.466;3.610;2023-07-30T11:08:47;9.32;;;2.33;;
30096;SDS011;16915;51.466;3.610;2023-07-30T11:11:13;12.93;;;1.63;;
30096;SDS011;16915;51.466;3.610;2023-07-30T11:13:40;9.43;;;2.00;;
30096;SDS011;16915;51.466;3.610;2023-07-30T11:16:07;8.15;;;1.83;;
30096;SDS011;16915;51.466;3.610;2023-07-30T11:18:34;9.27;;;1.77;;
30096;SDS011;16915;51.466;3.610;2023-07-30T11:23:36;5.20;;;1.38;;
30096;SDS011;16915;51.466;3.610;2023-07-30T11:26:04;8.63;;;1.50;;
30096;SDS011;16915;51.466;3.610;2023-07-30T11:28:31;9.93;;;2.03;;
30096;SDS011;16915;51.466;3.610;2023-07-30T11:30:58;7.47;;;1.30;;
30096;SDS011;16915;51.466;3.610;2023-07-30T11:33:25;7.15;;;1.73;;
30096;SDS011;16915;51.466;3.610;2023-07-30T11:35:55;6.68;;;1.42;;
30096;SDS011;16915;51.466;3.610;2023-07-30T11:38:24;6.88;;;1.10;;
30096;SDS011;16915;51.466;3.610;2023-07-30T11:40:51;8.63;;;1.67;;
30096;SDS011;16915;51.466;3.610;2023-07-30T11:43:18;6.82;;;2.28;;
30096;SDS011;16915;51.466;3.610;2023-07-30T11:45:45;5.95;;;1.55;;
30096;SDS011;16915;51.466;3.610;2023-07-30T11:48:11;7.55;;;1.60;;
30096;SDS011;16915;51.466;3.610;2023-07-30T11:53:45;7.00;;;1.85;;
30096;SDS011;16915;51.466;3.610;2023-07-30T11:56:24;8.63;;;2.45;;
30096;SDS011;16915;51.466;3.610;2023-07-30T11:58:55;8.63;;;1.70;;
30096;SDS011;16915;51.466;3.610;2023-07-30T12:01:30;7.07;;;1.55;;
30096;SDS011;16915;51.466;3.610;2023-07-30T12:03:59;8.55;;;2.00;;
30096;SDS011;16915;51.466;3.610;2023-07-30T12:06:42;7.57;;;2.03;;
30096;SDS011;16915;51.466;3.610;2023-07-30T12:09:15;7.13;;;1.88;;
30096;SDS011;16915;51.466;3.610;2023-07-30T12:14:18;9.88;;;1.95;;
30096;SDS011;16915;51.466;3.610;2023-07-30T12:16:47;11.48;;;1.70;;
30096;SDS011;16915;51.466;3.610;2023-07-30T12:19:12;11.02;;;2.08;;
30096;SDS011;16915;51.466;3.610;2023-07-30T12:21:38;7.15;;;1.73;;
30096;SDS011;16915;51.466;3.610;2023-07-30T12:24:04;12.55;;;2.65;;
30096;SDS011;16915;51.466;3.610;2023-07-30T12:26:30;8.75;;;2.38;;
30096;SDS011;16915;51.466;3.610;2023-07-30T12:28:55;10.23;;;1.90;;
30096;SDS011;16915;51.466;3.610;2023-07-30T12:31:21;12.20;;;2.10;;
30096;SDS011;16915;51.466;3.610;2023-07-30T12:33:47;11.60;;;2.55;;
30096;SDS011;16915;51.466;3.610;2023-07-30T12:36:12;10.88;;;2.45;;
30096;SDS011;16915;51.466;3.610;2023-07-30T12:38:38;10.45;;;2.42;;
30096;SDS011;16915;51.466;3.610;2023-07-30T12:41:04;10.02;;;2.45;;
30096;SDS011;16915;51.466;3.610;2023-07-30T12:43:30;9.90;;;2.53;;
30096;SDS011;16915;51.466;3.610;2023-07-30T12:45:55;9.38;;;2.05;;
30096;SDS011;16915;51.466;3.610;2023-07-30T12:48:21;7.53;;;2.40;;
30096;SDS011;16915;51.466;3.610;2023-07-30T12:50:46;9.57;;;2.42;;
30096;SDS011;16915;51.466;3.610;2023-07-30T12:53:12;10.93;;;2.50;;
30096;SDS011;16915;51.466;3.610;2023-07-30T12:55:38;13.27;;;2.55;;
30096;SDS011;16915;51.466;3.610;2023-07-30T12:58:04;10.70;;;2.60;;
30096;SDS011;16915;51.466;3.610;2023-07-30T13:00:30;13.57;;;2.60;;
30096;SDS011;16915;51.466;3.610;2023-07-30T13:02:56;13.30;;;2.70;;
30096;SDS011;16915;51.466;3.610;2023-07-30T13:05:22;12.07;;;3.20;;
30096;SDS011;16915;51.466;3.610;2023-07-30T13:07:48;9.85;;;2.75;;
30096;SDS011;16915;51.466;3.610;2023-07-30T13:10:14;14.20;;;2.97;;
30096;SDS011;16915;51.466;3.610;2023-07-30T13:12:40;15.43;;;3.13;;
30096;SDS011;16915;51.466;3.610;2023-07-30T13:15:05;13.98;;;2.75;;
30096;SDS011;16915;51.466;3.610;2023-07-30T13:17:32;13.30;;;2.85;;
30096;SDS011;16915;51.466;3.610;2023-07-30T13:19:57;9.25;;;3.00;;
30096;SDS011;16915;51.466;3.610;2023-07-30T13:22:23;12.20;;;3.03;;
30096;SDS011;16915;51.466;3.610;2023-07-30T13:24:49;11.30;;;3.13;;
30096;SDS011;16915;51.466;3.610;2023-07-30T13:27:14;14.20;;;3.45;;
30096;SDS011;16915;51.466;3.610;2023-07-30T13:29:40;14.75;;;3.03;;
30096;SDS011;16915;51.466;3.610;2023-07-30T13:32:06;10.43;;;2.50;;
30096;SDS011;16915;51.466;3.610;2023-07-30T13:34:32;12.73;;;2.90;;
30096;SDS011;16915;51.466;3.610;2023-07-30T13:36:57;12.73;;;3.20;;
30096;SDS011;16915;51.466;3.610;2023-07-30T13:39:23;15.05;;;3.35;;
30096;SDS011;16915;51.466;3.610;2023-07-30T13:41:49;17.25;;;3.58;;
30096;SDS011;16915;51.466;3.610;2023-07-30T13:44:14;13.63;;;3.20;;
30096;SDS011;16915;51.466;3.610;2023-07-30T13:46:40;17.17;;;3.03;;
30096;SDS011;16915;51.466;3.610;2023-07-30T13:49:06;11.68;;;3.22;;
30096;SDS011;16915;51.466;3.610;2023-07-30T13:51:32;12.02;;;3.15;;
30096;SDS011;16915;51.466;3.610;2023-07-30T13:53:58;14.90;;;3.83;;
30096;SDS011;16915;51.466;3.610;2023-07-30T13:56:25;11.80;;;3.10;;
30096;SDS011;16915;51.466;3.610;2023-07-30T13:58:51;15.50;;;3.25;;
30096;SDS011;16915;51.466;3.610;2023-07-30T14:01:17;16.40;;;4.18;;
30096;SDS011;16915;51.466;3.610;2023-07-30T14:03:43;10.65;;;3.30;;
30096;SDS011;16915;51.466;3.610;2023-07-30T14:06:08;23.35;;;3.72;;
30096;SDS011;16915;51.466;3.610;2023-07-30T14:08:34;12.80;;;3.13;;
30096;SDS011;16915;51.466;3.610;2023-07-30T14:11:00;12.25;;;3.20;;
30096;SDS011;16915;51.466;3.610;2023-07-30T14:13:25;14.63;;;3.40;;
30096;SDS011;16915;51.466;3.610;2023-07-30T14:15:51;12.95;;;3.60;;
30096;SDS011;16915;51.466;3.610;2023-07-30T14:18:17;11.52;;;3.80;;
30096;SDS011;16915;51.466;3.610;2023-07-30T14:20:43;21.15;;;4.00;;
30096;SDS011;16915;51.466;3.610;2023-07-30T14:23:08;15.85;;;4.22;;
30096;SDS011;16915;51.466;3.610;2023-07-30T14:25:34;26.85;;;4.40;;
30096;SDS011;16915;51.466;3.610;2023-07-30T14:28:00;19.33;;;3.90;;
30096;SDS011;16915;51.466;3.610;2023-07-30T14:30:26;19.98;;;4.82;;
30096;SDS011;16915;51.466;3.610;2023-07-30T14:32:51;17.13;;;4.30;;
30096;SDS011;16915;51.466;3.610;2023-07-30T14:35:17;14.15;;;3.70;;
30096;SDS011;16915;51.466;3.610;2023-07-30T14:37:42;22.73;;;4.78;;
30096;SDS011;16915;51.466;3.610;2023-07-30T14:40:08;14.35;;;4.03;;
30096;SDS011;16915;51.466;3.610;2023-07-30T14:42:34;22.92;;;4.88;;
30096;SDS011;16915;51.466;3.610;2023-07-30T14:44:59;16.65;;;4.13;;
30096;SDS011;16915;51.466;3.610;2023-07-30T14:47:25;16.42;;;3.90;;